Time;durP1;ratioP1;P1;durP2;ratioP2;P2;SDS_P1;SDS_P2;PMS_P1;PMS_P2;Temp;Humidity;BMP_temperature;BMP_pressure;BME280_temperature;BME280_humidity;BME280_pressure;Samples;Min_cycle;Max_cycle;Signal;HPM_P1;HPM_P2
2023/09/08 00:00:09;;;;;;;9.10;6.47;;;18.20;99.90;;;-141.84;71.57;21057.84;5023792;28;20250;-66
2023/09/08 00:02:37;;;;;;;9.70;6.70;;;18.20;99.90;;;-141.84;71.51;21086.31;5023264;28;20276;-64
2023/09/08 00:05:05;;;;;;;8.88;6.85;;;17.90;99.90;;;-141.84;71.83;21041.56;5022201;28;20232;-67
2023/09/08 00:07:33;;;;;;;7.13;6.43;;;18.10;99.90;;;-141.84;72.11;21015.16;5024211;28;20269;-66
2023/09/08 00:10:02;;;;;;;8.20;6.80;;;18.10;99.90;;;-141.84;72.18;21015.16;5033338;28;20704;-68
2023/09/08 00:12:31;;;;;;;10.65;7.10;;;17.90;99.90;;;-141.84;72.24;20972.47;5043640;28;20232;-66
2023/09/08 00:15:00;;;;;;;8.63;6.72;;;18.00;99.90;;;-141.84;72.40;21023.28;5023782;28;20679;-68
2023/09/08 00:17:29;;;;;;;7.28;6.60;;;18.00;99.90;;;-141.84;72.66;20982.63;5023888;28;20264;-67
2023/09/08 00:19:58;;;;;;;7.93;6.82;;;17.90;99.90;;;-141.84;72.60;20954.16;5023493;28;20557;-66
2023/09/08 00:22:26;;;;;;;7.75;6.45;;;17.90;99.90;;;-141.84;72.73;20976.53;5032544;28;20390;-68
2023/09/08 00:24:55;;;;;;;8.18;7.20;;;17.90;99.90;;;-141.84;73.44;20917.56;5017751;28;20295;-67
2023/09/08 00:27:23;;;;;;;8.05;7.25;;;17.80;99.90;;;-141.84;73.59;20921.63;5036926;28;20316;-65
2023/09/08 00:29:53;;;;;;;7.82;6.95;;;17.80;99.90;;;-141.84;73.04;20968.38;5023778;28;20972;-66
2023/09/08 00:32:21;;;;;;;11.25;6.70;;;17.80;99.90;;;-141.84;73.01;20935.88;5023472;28;20253;-67
2023/09/08 00:34:49;;;;;;;9.82;7.07;;;17.80;99.90;;;-141.84;73.25;20889.09;5014878;28;20716;-67
2023/09/08 00:37:17;;;;;;;7.88;7.03;;;17.80;99.90;;;-141.84;73.38;20915.53;5022785;28;20238;-66
2023/09/08 00:39:46;;;;;;;7.60;6.85;;;17.70;99.90;;;-141.84;73.21;20901.31;5023369;28;20309;-67
2023/09/08 00:42:14;;;;;;;7.68;6.80;;;17.70;99.90;;;-141.84;73.36;20913.50;5023197;28;20558;-67
2023/09/08 00:44:42;;;;;;;10.35;7.15;;;17.70;99.90;;;-141.84;73.92;20905.38;5013240;28;20337;-66
2023/09/08 00:47:12;;;;;;;8.60;7.57;;;17.70;99.90;;;-141.84;74.23;20891.13;5003581;28;20322;-66
2023/09/08 00:49:40;;;;;;;7.65;6.88;;;17.60;99.90;;;-141.84;74.04;20895.19;5003141;28;20226;-66
2023/09/08 00:52:09;;;;;;;8.93;7.10;;;17.60;99.90;;;-141.84;74.33;20824.06;5003369;28;20749;-67
2023/09/08 00:54:37;;;;;;;8.38;6.78;;;17.60;99.90;;;-141.84;74.24;20840.31;4997385;28;20245;-65
2023/09/08 00:57:07;;;;;;;7.55;6.80;;;17.60;99.90;;;-141.84;74.29;20846.41;4999717;28;20248;-67
2023/09/08 00:59:36;;;;;;;7.97;7.18;;;17.60;99.90;;;-141.84;74.12;20842.34;5017813;28;20229;-66
2023/09/08 01:02:05;;;;;;;10.13;7.40;;;17.60;99.90;;;-141.84;73.99;20866.75;5022376;28;20329;-67
2023/09/08 01:04:34;;;;;;;8.05;7.25;;;17.60;99.90;;;-141.84;74.32;20854.53;5023175;28;20230;-66
2023/09/08 01:07:03;;;;;;;7.40;6.70;;;17.60;99.90;;;-141.84;74.40;20815.91;5018326;28;20237;-66
2023/09/08 01:09:31;;;;;;;7.95;7.13;;;17.50;99.90;;;-141.84;74.73;20824.06;5028357;28;20237;-66
2023/09/08 01:12:01;;;;;;;8.20;7.40;;;17.50;99.90;;;-141.84;74.59;20820.00;5024470;28;20242;-65
2023/09/08 01:14:31;;;;;;;7.93;7.18;;;17.50;99.90;;;-141.84;74.68;20815.91;5022909;28;20681;-66
2023/09/08 01:16:59;;;;;;;8.35;6.95;;;17.40;99.90;;;-141.84;74.72;20809.81;5014522;28;20269;-66
2023/09/08 01:19:28;;;;;;;8.20;7.47;;;17.40;99.90;;;-141.84;74.55;20769.16;5028925;28;20292;-66
2023/09/08 01:22:42;;;;;;;10.77;8.02;;;17.30;99.90;;;-141.84;74.54;20783.41;5022567;28;20236;-67
2023/09/08 01:25:22;;;;;;;8.85;7.22;;;17.40;99.90;;;-141.84;74.84;20779.31;5035157;28;20262;-65
2023/09/08 01:27:53;;;;;;;9.23;7.70;;;17.40;99.90;;;-141.84;74.89;20738.66;5002784;28;20230;-67
2023/09/08 01:30:25;;;;;;;8.23;7.43;;;17.30;99.90;;;-141.84;74.64;20773.22;5002911;28;20523;-66
2023/09/08 01:32:55;;;;;;;8.13;7.32;;;17.30;99.90;;;-141.84;74.83;20756.97;4995718;28;20229;-66
2023/09/08 01:35:24;;;;;;;9.13;7.55;;;17.30;99.90;;;-141.84;75.27;20765.09;5003070;28;20285;-66
2023/09/08 01:37:53;;;;;;;8.07;7.28;;;17.30;99.90;;;-141.84;75.61;20759.00;5002635;28;20226;-67
2023/09/08 01:40:22;;;;;;;11.55;7.45;;;17.30;99.90;;;-141.84;75.17;20767.13;5026480;28;20298;-66
2023/09/08 01:42:51;;;;;;;8.50;7.70;;;17.20;99.90;;;-141.84;75.43;20724.44;5034655;28;20328;-66
2023/09/08 01:45:19;;;;;;;11.23;7.55;;;17.20;99.90;;;-141.84;75.72;20726.47;5035286;28;20753;-67
2023/09/08 01:47:47;;;;;;;8.63;7.75;;;17.20;99.90;;;-141.84;75.61;20714.28;5022476;28;20205;-66
2023/09/08 01:50:21;;;;;;;8.00;6.85;;;17.20;99.90;;;-141.84;76.07;20708.19;5021809;28;20237;-68
2023/09/08 01:52:49;;;;;;;8.48;7.68;;;17.10;99.90;;;-141.84;76.16;20675.66;5014087;28;20241;-66
2023/09/08 01:55:18;;;;;;;8.73;7.85;;;17.10;99.90;;;-141.84;76.67;20718.34;5020526;28;20238;-66
2023/09/08 01:57:47;;;;;;;9.02;7.65;;;17.10;99.90;;;-141.84;76.56;20702.09;5015122;28;20243;-66
2023/09/08 02:00:16;;;;;;;8.68;7.38;;;17.00;99.90;;;-141.84;76.51;20685.81;5005536;28;20244;-67
2023/09/08 02:02:44;;;;;;;8.45;7.53;;;17.00;99.90;;;-141.84;76.85;20653.28;5015378;28;20289;-66
2023/09/08 02:05:13;;;;;;;8.60;7.30;;;16.90;99.90;;;-141.84;76.93;20655.31;5022034;28;20749;-66
2023/09/08 02:07:41;;;;;;;8.48;7.57;;;16.90;99.90;;;-141.84;77.11;20637.03;5021962;28;20230;-66
2023/09/08 02:10:11;;;;;;;9.77;8.18;;;17.00;99.90;;;-141.84;77.03;20653.28;5021765;28;20321;-66
2023/09/08 02:12:39;;;;;;;8.00;7.15;;;16.90;99.90;;;-141.84;77.36;20626.88;5014154;28;20688;-64
2023/09/08 02:15:11;;;;;;;8.60;7.70;;;16.80;99.90;;;-141.84;77.33;20647.19;5031909;28;20218;-66
2023/09/08 02:17:39;;;;;;;8.10;7.32;;;16.90;99.90;;;-141.84;77.48;20614.66;5022472;28;20732;-65
2023/09/08 02:20:09;;;;;;;9.25;8.20;;;16.80;99.90;;;-141.84;77.59;20639.06;5021624;28;20218;-65
2023/09/08 02:22:37;;;;;;;9.13;7.75;;;16.70;99.90;;;-141.84;77.47;20624.84;5019809;28;20318;-65
2023/09/08 02:25:07;;;;;;;8.50;7.43;;;16.70;99.90;;;-141.84;77.74;20614.66;5028801;28;20358;-65
2023/09/08 02:27:36;;;;;;;7.82;7.10;;;16.70;99.90;;;-141.84;78.13;20598.41;5041500;28;20286;-66
2023/09/08 02:30:05;;;;;;;7.40;6.70;;;16.70;99.90;;;-141.84;78.98;20610.59;5042007;28;20216;-66
2023/09/08 02:32:35;;;;;;;8.23;7.22;;;16.60;99.90;;;-141.84;79.58;20543.53;5042118;28;20211;-66
2023/09/08 02:35:04;;;;;;;8.48;7.55;;;16.60;99.90;;;-141.84;80.00;20541.50;5040358;28;20221;-66
2023/09/08 02:37:32;;;;;;;9.13;7.05;;;16.50;99.90;;;-141.84;80.25;20561.81;5041743;28;20320;-66
2023/09/08 02:40:03;;;;;;;8.43;7.63;;;16.50;99.90;;;-141.84;80.45;20531.31;5041526;28;20316;-65
2023/09/08 02:42:31;;;;;;;7.82;7.13;;;16.40;99.90;;;-141.84;80.58;20527.25;5041468;28;20399;-66
2023/09/08 02:45:00;;;;;;;8.00;7.30;;;16.40;99.90;;;-141.84;80.63;20529.28;5029487;28;20230;-65
2023/09/08 02:47:28;;;;;;;8.93;8.10;;;16.40;99.90;;;-141.84;80.52;20504.91;5021808;28;20673;-66
2023/09/08 02:49:58;;;;;;;11.02;8.20;;;16.30;99.90;;;-141.84;80.60;20533.34;5021706;28;20324;-67
2023/09/08 02:52:26;;;;;;;10.73;8.23;;;16.30;99.90;;;-141.84;80.65;20500.84;5021613;28;20234;-65
2023/09/08 02:54:54;;;;;;;9.18;8.25;;;16.30;99.90;;;-141.84;80.55;20488.63;5012920;28;20316;-66
2023/09/08 02:57:22;;;;;;;9.90;8.73;;;16.30;99.90;;;-141.84;80.18;20508.97;5025025;28;20298;-66
2023/09/08 02:59:51;;;;;;;8.82;7.93;;;16.30;99.90;;;-141.84;80.19;20553.69;5026898;28;20293;-66
2023/09/08 03:02:19;;;;;;;9.15;8.20;;;16.30;99.90;;;-141.84;80.02;20500.84;5025225;28;20329;-66
2023/09/08 03:04:48;;;;;;;9.13;8.23;;;16.30;99.90;;;-141.84;80.60;20484.56;5016814;28;20276;-65
2023/09/08 03:07:18;;;;;;;9.38;8.20;;;16.30;99.90;;;-141.84;80.79;20464.25;5024612;28;20622;-66
2023/09/08 03:09:46;;;;;;;9.20;8.30;;;16.20;99.90;;;-141.84;80.76;20502.88;5025060;28;20709;-66
2023/09/08 03:12:15;;;;;;;10.20;9.18;;;16.30;99.90;;;-141.84;80.89;20474.41;5036012;28;20229;-66
2023/09/08 03:14:43;;;;;;;9.45;8.50;;;16.20;99.90;;;-141.84;80.70;20525.22;5017810;28;20539;-66
2023/09/08 03:17:12;;;;;;;9.15;8.25;;;16.20;99.90;;;-141.84;80.01;20496.78;5024731;28;20299;-66
2023/09/08 03:19:40;;;;;;;9.98;8.63;;;16.20;99.90;;;-141.84;79.47;20517.09;5025292;28;20237;-66
2023/09/08 03:22:08;;;;;;;9.65;8.48;;;16.20;99.90;;;-141.84;80.21;20470.34;5025152;28;20720;-66
2023/09/08 03:24:38;;;;;;;9.05;7.47;;;16.30;99.90;;;-141.84;80.52;20464.25;5028350;28;20319;-67
2023/09/08 03:27:06;;;;;;;9.35;8.27;;;16.20;99.90;;;-141.84;80.49;20437.81;5043897;28;20583;-67
2023/09/08 03:29:34;;;;;;;8.68;7.78;;;16.20;99.90;;;-141.84;80.62;20441.88;5044965;28;20201;-66
2023/09/08 03:32:03;;;;;;;9.65;8.13;;;16.10;99.90;;;-141.84;80.69;20456.13;5044349;28;20244;-66
2023/09/08 03:34:32;;;;;;;8.52;7.35;;;16.10;99.90;;;-141.84;80.22;20460.19;5044661;28;20229;-66
2023/09/08 03:37:00;;;;;;;8.27;7.47;;;16.10;99.90;;;-141.84;80.28;20441.88;5036522;28;20760;-67
2023/09/08 03:39:28;;;;;;;10.35;7.60;;;16.10;99.90;;;-141.84;80.28;20456.13;5044508;28;20251;-66
2023/09/08 03:41:58;;;;;;;7.82;7.13;;;16.10;99.90;;;-141.84;80.44;20454.09;5044532;28;20271;-66
2023/09/08 03:44:26;;;;;;;8.45;7.28;;;16.10;99.90;;;-141.84;80.34;20423.59;5044260;28;20272;-65
2023/09/08 03:46:54;;;;;;;8.73;7.53;;;16.10;99.90;;;-141.84;79.98;20486.59;5037044;28;20272;-66
2023/09/08 03:49:22;;;;;;;8.40;7.18;;;16.10;99.90;;;-141.84;79.63;20423.59;5042794;28;20233;-66
2023/09/08 03:51:50;;;;;;;9.70;7.45;;;16.10;99.90;;;-141.84;79.72;20437.81;5044026;28;20252;-66
2023/09/08 03:54:18;;;;;;;8.80;7.90;;;16.10;99.90;;;-141.84;79.36;20425.63;5036292;28;20265;-66
2023/09/08 03:56:47;;;;;;;7.97;7.18;;;16.10;99.90;;;-141.84;79.37;20472.38;5016325;28;20214;-67
2023/09/08 03:59:16;;;;;;;8.48;7.68;;;16.10;99.90;;;-141.84;79.22;20466.28;5031394;28;20721;-66
2023/09/08 04:01:44;;;;;;;8.27;7.47;;;16.00;99.90;;;-141.84;79.56;20458.16;5024455;28;20325;-66
2023/09/08 04:04:13;;;;;;;8.82;7.20;;;16.00;99.90;;;-141.84;79.58;20417.50;5023877;28;20230;-66
2023/09/08 04:06:42;;;;;;;8.02;7.22;;;16.00;99.90;;;-141.84;79.93;20433.75;5018800;28;20809;-65
2023/09/08 04:09:10;;;;;;;7.88;7.07;;;16.00;99.90;;;-141.84;80.35;20384.97;5032407;28;20298;-67
2023/09/08 04:11:38;;;;;;;9.93;7.55;;;16.00;99.90;;;-141.84;80.60;20376.84;5023060;28;20206;-67
2023/09/08 04:14:06;;;;;;;10.65;8.05;;;15.90;99.90;;;-141.84;80.94;20387.00;5023752;28;20237;-66
2023/09/08 04:16:36;;;;;;;8.00;7.30;;;15.90;99.90;;;-141.84;81.50;20417.50;5023961;28;20744;-66
2023/09/08 04:19:04;;;;;;;8.50;7.65;;;15.80;99.90;;;-141.84;81.91;20372.78;5021186;28;20250;-67
2023/09/08 04:21:32;;;;;;;8.48;7.68;;;15.80;99.90;;;-141.84;81.60;20376.84;5024069;28;20245;-66
2023/09/08 04:24:01;;;;;;;8.05;7.35;;;15.70;99.90;;;-141.84;82.13;20391.06;5024357;28;20297;-66
2023/09/08 04:26:29;;;;;;;9.48;7.40;;;15.70;99.90;;;-141.84;82.40;20334.16;5043548;28;20201;-66
2023/09/08 04:28:57;;;;;;;8.52;7.60;;;15.70;99.90;;;-141.84;82.72;20356.50;5035878;28;20237;-66
2023/09/08 04:31:26;;;;;;;8.15;7.35;;;15.60;99.90;;;-141.84;82.33;20403.25;5043783;28;20237;-67
2023/09/08 04:33:55;;;;;;;8.50;7.03;;;15.60;99.90;;;-141.84;82.32;20364.66;5043862;28;20264;-68
2023/09/08 04:36:24;;;;;;;8.52;7.72;;;15.60;99.90;;;-141.84;82.76;20348.38;5043575;28;20735;-66
2023/09/08 04:38:52;;;;;;;8.32;7.43;;;15.60;99.90;;;-141.84;83.04;20330.09;5036499;28;20217;-66
2023/09/08 04:41:20;;;;;;;10.40;8.02;;;15.50;99.90;;;-141.84;83.07;20344.31;5043243;28;20604;-66
2023/09/08 04:43:48;;;;;;;8.15;7.00;;;15.60;99.90;;;-141.84;82.63;20321.97;5043072;28;20312;-66
2023/09/08 04:46:16;;;;;;;8.05;7.25;;;15.60;99.90;;;-141.84;82.22;20372.78;5027808;28;20438;-67
2023/09/08 04:48:45;;;;;;;7.65;6.85;;;15.60;99.90;;;-141.84;82.41;20334.16;5015909;28;20236;-67
2023/09/08 04:51:14;;;;;;;8.10;6.88;;;15.60;99.90;;;-141.84;82.60;20348.38;5023485;28;20234;-66
2023/09/08 04:53:42;;;;;;;8.25;7.40;;;15.60;99.90;;;-141.84;82.72;20370.75;5023772;28;20206;-66
2023/09/08 04:56:10;;;;;;;8.13;7.32;;;15.60;99.90;;;-141.84;82.63;20305.69;5011104;28;20613;-66
2023/09/08 04:58:39;;;;;;;9.02;8.00;;;15.60;99.90;;;-141.84;82.33;20356.50;5010458;28;20663;-65
2023/09/08 05:01:07;;;;;;;8.13;7.35;;;15.70;99.90;;;-141.84;82.00;20354.47;5022701;28;20229;-66
2023/09/08 05:03:35;;;;;;;9.32;7.78;;;15.70;99.90;;;-141.84;80.51;20376.84;5030643;28;20272;-66
2023/09/08 05:06:04;;;;;;;8.63;7.80;;;15.70;99.90;;;-141.84;80.35;20384.97;5026418;28;20255;-66
2023/09/08 05:08:33;;;;;;;10.32;7.45;;;15.80;99.90;;;-141.84;80.40;20391.06;5023004;28;20202;-66
2023/09/08 05:11:04;;;;;;;8.68;7.85;;;15.80;99.90;;;-141.84;80.73;20395.13;5016308;28;20233;-66
2023/09/08 05:13:32;;;;;;;10.82;8.52;;;15.90;99.90;;;-141.84;80.97;20350.41;5022592;28;20628;-67
2023/09/08 05:16:10;;;;;;;10.60;7.95;;;15.90;99.90;;;-141.84;81.00;20380.91;5022683;28;20275;-66
2023/09/08 05:18:40;;;;;;;8.57;7.68;;;16.00;99.90;;;-141.84;80.83;20411.41;5014669;28;20314;-63
2023/09/08 05:21:08;;;;;;;10.07;8.10;;;16.10;99.90;;;-141.84;79.79;20423.59;5022954;28;20210;-66
2023/09/08 05:23:38;;;;;;;10.40;7.90;;;16.10;99.90;;;-141.84;79.66;20474.41;5022482;28;20234;-66
2023/09/08 05:26:06;;;;;;;13.75;7.97;;;16.20;99.90;;;-141.84;78.75;20486.59;5040228;28;20280;-67
2023/09/08 05:28:34;;;;;;;11.05;7.63;;;16.30;99.90;;;-141.84;78.41;20547.59;5042116;28;20341;-66
2023/09/08 05:31:06;;;;;;;8.63;7.72;;;16.50;99.90;;;-141.84;77.85;20521.16;5042198;28;20247;-65
2023/09/08 05:33:35;;;;;;;8.52;7.43;;;16.70;99.90;;;-141.84;77.12;20547.59;5042465;28;20564;-65
2023/09/08 05:36:03;;;;;;;8.40;7.45;;;16.80;99.90;;;-141.84;76.51;20592.31;5041888;28;20205;-65
2023/09/08 05:38:31;;;;;;;8.63;7.82;;;17.00;99.90;;;-141.84;75.55;20624.84;5043380;28;20315;-65
2023/09/08 05:41:02;;;;;;;8.70;7.05;;;17.20;99.90;;;-141.84;74.84;20628.91;5034662;28;20240;-66
2023/09/08 05:43:30;;;;;;;8.50;7.35;;;17.30;99.90;;;-141.84;74.30;20675.66;5042034;28;20233;-65
2023/09/08 05:45:59;;;;;;;7.95;6.97;;;17.50;99.90;;;-141.84;73.87;20693.94;5029475;28;20244;-66
2023/09/08 05:48:28;;;;;;;8.52;7.60;;;17.60;99.90;;;-141.84;73.14;20712.25;5022098;28;20234;-66
2023/09/08 05:50:56;;;;;;;9.02;7.03;;;17.70;99.90;;;-141.84;72.63;20748.84;5014539;28;20962;-67
2023/09/08 05:53:25;;;;;;;8.65;7.75;;;17.80;99.90;;;-141.84;72.24;20744.78;5023084;28;20305;-65
2023/09/08 05:55:53;;;;;;;8.10;6.93;;;17.90;99.90;;;-141.84;71.81;20763.06;5034043;28;20295;-67
2023/09/08 05:58:24;;;;;;;10.63;7.45;;;17.90;99.90;;;-141.84;71.47;20775.25;5037504;28;20594;-65
2023/09/08 06:00:52;;;;;;;8.57;6.85;;;18.00;99.90;;;-141.84;71.48;20809.81;5030477;28;20291;-65
2023/09/08 06:03:20;;;;;;;7.72;6.93;;;18.10;99.90;;;-141.84;71.20;20828.13;5042080;28;20239;-66
2023/09/08 06:05:49;;;;;;;8.90;7.18;;;18.10;99.90;;;-141.84;71.01;20805.75;5030399;28;20232;-67
2023/09/08 06:08:17;;;;;;;8.02;7.10;;;18.20;99.90;;;-141.84;70.57;20791.53;5021642;28;20609;-66
2023/09/08 06:10:45;;;;;;;10.45;7.53;;;18.20;99.90;;;-141.84;70.12;20870.81;5014718;28;20238;-64
2023/09/08 06:13:13;;;;;;;7.75;6.97;;;18.30;99.90;;;-141.84;70.02;20895.19;5021903;28;20709;-67
2023/09/08 06:15:43;;;;;;;8.65;7.00;;;18.40;99.90;;;-141.84;70.01;20907.41;5021779;28;20657;-66
2023/09/08 06:18:12;;;;;;;8.38;7.22;;;18.40;99.90;;;-141.84;70.11;20870.81;5021768;28;20708;-66
2023/09/08 06:20:46;;;;;;;8.43;6.78;;;18.50;99.90;;;-141.84;69.62;20948.06;5015147;28;20210;-65
2023/09/08 06:23:15;;;;;;;10.88;7.13;;;18.60;99.90;;;-141.84;69.29;20937.91;5022595;28;20271;-66
2023/09/08 06:25:43;;;;;;;8.15;6.75;;;18.70;99.90;;;-141.84;69.24;20946.03;5036350;28;20759;-68
2023/09/08 06:28:11;;;;;;;11.07;7.22;;;18.70;99.90;;;-141.84;69.27;20952.13;5041577;28;20304;-66
2023/09/08 06:30:41;;;;;;;11.93;7.53;;;18.80;99.90;;;-141.84;69.52;20964.31;5034005;28;20232;-67
2023/09/08 06:33:11;;;;;;;8.95;7.18;;;18.80;99.90;;;-141.84;69.50;20964.31;5041861;28;20284;-68
2023/09/08 06:35:39;;;;;;;9.63;7.63;;;18.80;99.90;;;-141.84;68.89;20984.66;5044876;28;20252;-66
2023/09/08 06:38:08;;;;;;;10.20;7.30;;;18.80;99.90;;;-141.84;68.64;20927.72;5045360;28;20229;-66
2023/09/08 06:40:36;;;;;;;9.85;8.13;;;18.90;99.90;;;-141.84;67.82;20976.53;5045883;28;20299;-65
2023/09/08 06:43:05;;;;;;;7.85;7.10;;;18.90;99.90;;;-141.84;67.75;21021.25;5030960;28;20312;-67
2023/09/08 06:45:33;;;;;;;8.18;7.30;;;18.90;99.90;;;-141.84;67.95;21027.34;5045771;28;20241;-65
2023/09/08 06:48:01;;;;;;;8.32;7.38;;;19.00;99.90;;;-141.84;67.82;21025.31;5040050;28;20288;-66
2023/09/08 06:50:31;;;;;;;7.43;6.72;;;19.00;99.90;;;-141.84;67.23;21055.81;5025882;28;20225;-66
2023/09/08 06:53:00;;;;;;;7.63;6.68;;;19.00;99.90;;;-141.84;67.95;21037.50;5017923;28;20237;-65
2023/09/08 06:55:28;;;;;;;8.43;7.30;;;19.10;99.90;;;-141.84;67.61;21057.84;5022386;28;20234;-66
2023/09/08 06:57:58;;;;;;;7.22;6.53;;;19.10;99.90;;;-141.84;67.42;21094.44;5014372;28;20229;-67
2023/09/08 07:00:26;;;;;;;8.70;7.10;;;19.20;99.90;;;-141.84;66.89;21116.78;5026317;28;20253;-67
2023/09/08 07:02:54;;;;;;;8.38;7.53;;;19.30;99.90;;;-141.84;67.10;21108.66;5018292;28;20767;-65
2023/09/08 07:05:23;;;;;;;11.10;7.53;;;19.30;99.90;;;-141.84;66.58;21108.66;5025639;28;20591;-65
2023/09/08 07:07:52;;;;;;;8.95;6.60;;;19.40;99.90;;;-141.84;65.93;21232.69;5025205;28;20269;-66
2023/09/08 07:10:21;;;;;;;8.38;6.80;;;19.70;99.90;;;-141.84;65.16;21305.88;5025036;28;20236;-66
2023/09/08 07:12:49;;;;;;;8.13;7.25;;;19.90;99.90;;;-141.84;63.78;21305.88;5017794;28;20244;-66
2023/09/08 07:15:17;;;;;;;8.60;6.32;;;20.00;99.90;;;-141.84;63.89;21277.41;5025164;28;20583;-66
2023/09/08 07:17:46;;;;;;;8.27;6.78;;;20.10;99.90;;;-141.84;64.07;21305.88;5025346;28;20625;-66
2023/09/08 07:20:14;;;;;;;7.97;6.93;;;20.20;99.90;;;-141.84;62.82;21356.69;5024921;28;20236;-66
2023/09/08 07:22:42;;;;;;;7.40;6.65;;;20.30;99.90;;;-141.84;63.59;21332.31;5017331;28;20244;-66
2023/09/08 07:25:12;;;;;;;8.13;6.90;;;20.20;99.90;;;-141.84;63.77;21405.50;5034988;28;20675;-65
2023/09/08 07:27:40;;;;;;;7.38;6.63;;;20.40;99.90;;;-141.84;63.75;21370.94;5005426;28;20316;-66
2023/09/08 07:30:09;;;;;;;7.72;6.70;;;20.40;99.90;;;-141.84;63.84;21362.81;5003471;28;20241;-67
2023/09/08 07:32:37;;;;;;;7.03;6.32;;;20.40;99.90;;;-141.84;63.64;21393.31;4983970;28;20655;-65
2023/09/08 07:35:13;;;;;;;7.03;6.40;;;20.50;99.90;;;-141.84;63.75;21381.09;4983460;28;20235;-65
2023/09/08 07:37:42;;;;;;;7.38;6.50;;;20.50;99.90;;;-141.84;62.98;21399.41;4991218;28;20253;-66
2023/09/08 07:40:12;;;;;;;9.05;6.68;;;20.50;99.90;;;-141.84;63.03;21462.44;5005079;28;20310;-67
2023/09/08 07:42:40;;;;;;;7.00;6.00;;;20.70;99.90;;;-141.84;62.15;21468.53;4999134;28;20238;-66
2023/09/08 07:45:10;;;;;;;7.10;6.40;;;20.70;99.90;;;-141.84;62.09;21462.44;5010942;28;20277;-67
2023/09/08 07:47:38;;;;;;;7.43;6.82;;;20.80;99.90;;;-141.84;62.86;21480.72;5005580;28;20290;-67
2023/09/08 07:50:23;;;;;;;7.03;6.07;;;20.80;99.90;;;-141.84;62.82;21488.88;5004784;28;20245;-68
2023/09/08 07:52:53;;;;;;;7.57;6.75;;;20.90;99.90;;;-141.84;62.21;21505.13;4994906;28;20210;-67
2023/09/08 07:55:26;;;;;;;6.63;5.80;;;21.00;99.90;;;-141.84;62.31;21525.47;5009304;28;20701;-67
2023/09/08 07:57:57;;;;;;;7.00;6.10;;;21.10;99.90;;;-141.84;61.65;21582.38;5014142;28;20316;-67
2023/09/08 08:00:26;;;;;;;6.80;6.10;;;21.20;99.90;;;-141.84;62.01;21590.53;4989661;28;20241;-66
2023/09/08 08:02:56;;;;;;;8.25;6.60;;;21.30;99.90;;;-141.84;61.34;21604.75;4997338;28;20249;-66
2023/09/08 08:05:25;;;;;;;6.60;5.97;;;21.30;99.90;;;-141.84;59.63;21680.00;5023979;28;20230;-68
2023/09/08 08:07:54;;;;;;;8.82;6.57;;;21.50;99.90;;;-141.84;60.24;21659.66;5024415;28;20233;-68
2023/09/08 08:10:23;;;;;;;6.95;5.93;;;21.50;99.90;;;-141.84;59.86;21732.84;5024157;28;20320;-68
2023/09/08 08:12:51;;;;;;;7.93;6.28;;;21.70;99.90;;;-141.84;60.02;21696.25;5016955;28;20264;-66
2023/09/08 08:15:22;;;;;;;9.80;6.75;;;21.70;99.90;;;-141.84;60.14;21710.50;5024080;28;20234;-65
2023/09/08 08:17:50;;;;;;;7.05;6.40;;;21.70;99.90;;;-141.84;59.11;21749.13;5023863;28;20229;-69
2023/09/08 08:20:19;;;;;;;6.97;6.00;;;21.80;99.90;;;-141.84;59.63;21771.50;5022455;28;20277;-65
2023/09/08 08:22:47;;;;;;;6.95;6.35;;;21.90;99.90;;;-141.84;59.50;21775.56;5015486;28;20232;-64
2023/09/08 08:25:16;;;;;;;6.65;6.05;;;22.00;99.90;;;-141.84;59.12;21789.78;5034104;28;20286;-66
2023/09/08 08:27:46;;;;;;;6.75;6.05;;;22.00;99.90;;;-141.84;58.93;21791.81;5034351;28;20230;-65
2023/09/08 08:30:14;;;;;;;8.43;6.47;;;22.20;99.90;;;-141.84;58.02;21844.69;5024003;28;20212;-65
2023/09/08 08:32:42;;;;;;;7.03;6.18;;;22.30;99.90;;;-141.84;57.83;21905.69;5016289;28;20280;-65
2023/09/08 08:35:10;;;;;;;6.78;6.05;;;22.40;99.90;;;-141.84;57.43;21905.69;5023136;28;20230;-65
2023/09/08 08:37:42;;;;;;;7.82;6.15;;;22.50;99.90;;;-141.84;57.03;21976.88;5022951;28;20651;-67
2023/09/08 08:40:12;;;;;;;6.20;5.65;;;22.60;99.90;;;-141.84;57.05;21962.63;5022843;28;20230;-69
2023/09/08 08:42:42;;;;;;;7.47;5.88;;;22.70;99.90;;;-141.84;56.57;21985.00;5015249;28;20248;-69
2023/09/08 08:45:12;;;;;;;6.90;6.20;;;22.80;99.90;;;-141.84;56.56;22003.31;5023356;28;20229;-65
2023/09/08 08:47:42;;;;;;;7.65;6.28;;;22.80;99.90;;;-141.84;56.91;21997.19;5021884;28;20209;-64
2023/09/08 08:50:13;;;;;;;6.82;6.07;;;22.80;99.90;;;-141.84;55.92;22084.66;5042697;28;20498;-64
2023/09/08 08:52:42;;;;;;;6.78;6.07;;;23.00;99.90;;;-141.84;55.81;22090.75;5018649;28;20226;-64
2023/09/08 08:55:11;;;;;;;7.20;6.18;;;23.00;99.90;;;-141.84;55.83;22064.31;5012536;28;20226;-63
2023/09/08 08:57:40;;;;;;;6.88;6.25;;;23.10;99.90;;;-141.84;55.45;22052.09;5022263;28;20288;-64
2023/09/08 09:00:12;;;;;;;6.22;5.72;;;23.10;99.90;;;-141.84;55.39;22139.56;5003684;28;20238;-64
2023/09/08 09:02:43;;;;;;;6.40;5.80;;;23.30;99.90;;;-141.84;55.48;22147.69;4995925;28;20229;-64
2023/09/08 09:05:14;;;;;;;6.07;5.57;;;23.30;99.90;;;-141.84;55.02;22137.50;5003563;28;20273;-64
2023/09/08 09:07:43;;;;;;;8.63;5.72;;;23.40;99.90;;;-141.84;54.05;22184.28;5003234;28;20284;-67
2023/09/08 09:10:12;;;;;;;6.03;5.53;;;23.50;99.90;;;-141.84;54.51;22196.50;5002912;28;20234;-65
2023/09/08 09:12:40;;;;;;;9.02;6.30;;;23.50;99.90;;;-141.84;54.06;22218.84;4994804;28;20816;-65
2023/09/08 09:15:11;;;;;;;5.68;5.18;;;23.70;99.90;;;-141.84;53.58;22277.84;5003148;28;20207;-65
2023/09/08 09:17:40;;;;;;;6.28;5.53;;;23.70;99.90;;;-141.84;52.04;22310.38;5002977;28;20665;-63
2023/09/08 09:20:17;;;;;;;6.43;5.82;;;23.80;99.90;;;-141.84;51.49;22344.94;5020271;28;20226;-64
2023/09/08 09:22:45;;;;;;;5.70;5.10;;;24.00;99.90;;;-141.84;50.77;22357.16;5015006;28;20233;-64
2023/09/08 09:25:23;;;;;;;6.00;5.32;;;24.00;99.90;;;-141.84;50.38;22405.97;5033420;28;20265;-68
2023/09/08 09:27:56;;;;;;;6.68;5.40;;;24.10;99.90;;;-141.84;50.83;22399.84;5031056;28;20225;-67
2023/09/08 09:30:30;;;;;;;6.25;5.47;;;24.20;99.90;;;-141.84;50.85;22438.50;5022637;28;20238;-68
2023/09/08 09:33:07;;;;;;;6.25;5.30;;;24.30;99.90;;;-141.84;49.85;22499.50;5015193;28;20217;-66
2023/09/08 09:35:44;;;;;;;6.10;5.50;;;24.40;99.90;;;-141.84;49.75;22471.03;5023239;28;20209;-66
2023/09/08 09:38:14;;;;;;;6.40;5.47;;;24.40;99.90;;;-141.84;49.07;22481.22;5022126;28;20225;-65
2023/09/08 09:40:42;;;;;;;6.75;5.30;;;24.50;99.90;;;-141.84;49.38;22497.47;5014967;28;20230;-64
2023/09/08 09:43:12;;;;;;;6.10;5.00;;;24.50;99.90;;;-141.84;49.80;22525.94;5027713;28;20233;-66
2023/09/08 09:45:43;;;;;;;7.80;5.30;;;24.60;99.90;;;-141.84;48.74;22615.44;5041855;28;20245;-64
2023/09/08 09:48:12;;;;;;;5.65;5.15;;;24.80;99.90;;;-141.84;48.69;22617.47;5042203;28;20664;-66
2023/09/08 09:50:43;;;;;;;5.82;5.03;;;24.80;99.90;;;-141.84;48.88;22597.13;5023731;28;20220;-65
2023/09/08 09:53:13;;;;;;;5.50;5.00;;;25.00;99.90;;;-141.84;48.22;22589.00;5022302;28;20238;-66
2023/09/08 09:55:43;;;;;;;6.88;5.00;;;24.90;99.90;;;-141.84;47.43;22684.59;5022611;28;20329;-64
2023/09/08 09:58:14;;;;;;;5.70;5.03;;;25.00;99.90;;;-141.84;47.74;22639.84;5022273;28;20230;-68
2023/09/08 10:00:47;;;;;;;5.53;4.97;;;25.00;99.90;;;-141.84;47.89;22613.41;5013928;28;20237;-64
2023/09/08 10:03:19;;;;;;;7.78;5.65;;;25.00;99.90;;;-141.84;47.27;22731.38;5022236;28;20249;-66
2023/09/08 10:05:49;;;;;;;5.22;4.68;;;25.10;99.90;;;-141.84;47.50;22727.28;5022740;28;20208;-66
2023/09/08 10:08:18;;;;;;;8.00;5.90;;;25.10;99.90;;;-141.84;46.98;22713.06;5022872;28;20325;-67
2023/09/08 10:10:47;;;;;;;6.63;5.13;;;25.20;99.90;;;-141.84;46.92;22741.53;5018252;28;20230;-66
2023/09/08 10:13:27;;;;;;;7.75;4.95;;;25.20;99.90;;;-141.84;46.57;22723.22;5025762;28;20252;-65